createdAt,value
2018-10-17T00:01:45.054Z,96.50
2018-10-17T00:06:48.180Z,96.30
2018-10-17T00:11:51.283Z,96.70
2018-10-17T00:16:54.431Z,96.70
2018-10-17T00:21:57.651Z,97.20
2018-10-17T00:27:00.751Z,97.00
2018-10-17T00:32:03.851Z,96.70
2018-10-17T00:37:07.064Z,96.70
2018-10-17T00:42:10.128Z,96.60
2018-10-17T00:47:13.423Z,96.60
2018-10-17T00:52:16.450Z,96.60
2018-10-17T00:57:19.585Z,97.00
2018-10-17T01:02:22.673Z,97.80
2018-10-17T01:07:25.789Z,97.10
2018-10-17T01:12:28.901Z,97.00
2018-10-17T01:17:32.023Z,97.30
2018-10-17T01:22:35.232Z,97.40
2018-10-17T01:27:38.349Z,97.40
2018-10-17T01:32:41.467Z,97.40
2018-10-17T01:37:44.597Z,97.30
2018-10-17T01:42:47.721Z,97.20
2018-10-17T01:47:50.826Z,97.60
2018-10-17T01:52:53.968Z,97.30
2018-10-17T01:57:58.010Z,97.70
2018-10-17T02:03:01.113Z,97.40
2018-10-17T02:08:04.242Z,97.60
2018-10-17T02:13:07.417Z,97.30
2018-10-17T02:18:10.492Z,97.10
2018-10-17T02:23:13.724Z,97.60
2018-10-17T02:28:16.745Z,97.20
2018-10-17T02:33:19.848Z,97.40
2018-10-17T02:38:22.941Z,98.00
2018-10-17T02:43:26.045Z,97.40
2018-10-17T02:48:29.118Z,97.30
2018-10-17T02:53:32.361Z,97.60
2018-10-17T02:58:35.452Z,97.80
2018-10-17T03:03:38.561Z,97.60
2018-10-17T03:08:41.702Z,97.40
2018-10-17T03:13:44.798Z,97.90
2018-10-17T03:18:47.878Z,98.10
2018-10-17T03:23:50.998Z,97.80
2018-10-17T03:28:54.102Z,97.70
2018-10-17T03:33:57.221Z,97.70
2018-10-17T03:39:00.392Z,97.90
2018-10-17T03:44:03.525Z,98.00
2018-10-17T03:49:07.311Z,97.80
2018-10-17T03:54:10.361Z,97.80
2018-10-17T03:59:13.621Z,98.00
2018-10-17T04:04:16.598Z,98.00
2018-10-17T04:09:19.710Z,98.20
2018-10-17T04:14:22.849Z,97.70
2018-10-17T04:19:25.982Z,97.70
2018-10-17T04:24:29.109Z,97.60
2018-10-17T04:29:32.242Z,97.80
2018-10-17T04:34:35.452Z,97.80
2018-10-17T04:39:38.554Z,97.60
2018-10-17T04:44:41.641Z,97.60
2018-10-17T04:49:44.731Z,97.60
2018-10-17T04:54:47.810Z,97.50
2018-10-17T04:59:50.887Z,97.80
2018-10-17T05:04:54.009Z,97.60
2018-10-17T05:09:57.377Z,97.50
2018-10-17T05:15:00.512Z,97.40
2018-10-17T05:20:03.630Z,97.60
2018-10-17T05:25:07.383Z,97.90
2018-10-17T05:30:10.494Z,97.70
2018-10-17T05:35:13.664Z,98.00
2018-10-17T05:40:16.757Z,97.50
2018-10-17T05:45:23.674Z,97.90
2018-10-17T05:50:26.794Z,98.10
2018-10-17T05:55:29.905Z,98.00
2018-10-17T06:00:33.004Z,98.00
2018-10-17T06:05:36.181Z,98.10
2018-10-17T06:10:39.295Z,98.40
2018-10-17T06:15:42.395Z,98.70
2018-10-17T06:20:45.510Z,98.60
2018-10-17T06:25:48.618Z,98.90
2018-10-17T06:30:51.737Z,98.80
2018-10-17T06:36:03.420Z,98.50
2018-10-17T06:41:06.783Z,98.90
2018-10-17T06:46:09.875Z,99.00
2018-10-17T06:51:12.994Z,99.00
2018-10-17T06:56:16.093Z,99.10
2018-10-17T07:01:19.233Z,99.50
2018-10-17T07:06:22.337Z,99.80
2018-10-17T07:11:25.486Z,99.90
2018-10-17T07:16:28.583Z,99.90
2018-10-17T07:21:31.693Z,99.90
2018-10-17T07:26:34.806Z,99.90
2018-10-17T07:31:37.919Z,99.90
2018-10-17T07:36:41.041Z,99.90
2018-10-17T07:41:44.125Z,99.90
2018-10-17T07:46:47.236Z,99.90
2018-10-17T07:51:51.594Z,99.90
2018-10-17T07:56:54.717Z,99.90
2018-10-17T08:01:57.820Z,99.90
2018-10-17T08:07:00.941Z,99.90
2018-10-17T08:22:09.938Z,99.90
2018-10-17T08:27:13.135Z,93.40
2018-10-17T08:32:16.178Z,92.80
2018-10-17T08:37:19.869Z,93.20
2018-10-17T08:42:22.437Z,94.90
2018-10-17T08:47:25.537Z,95.80
2018-10-17T08:52:29.533Z,96.50
2018-10-17T08:57:32.635Z,97.10
2018-10-17T09:02:35.716Z,97.50
2018-10-17T09:07:40.034Z,97.50
2018-10-17T09:12:43.142Z,97.70
2018-10-17T09:17:46.241Z,97.60
2018-10-17T09:22:49.343Z,97.30
2018-10-17T09:27:52.439Z,97.00
2018-10-17T09:32:55.532Z,96.30
2018-10-17T09:37:58.601Z,95.40
2018-10-17T09:43:01.707Z,94.30
2018-10-17T09:48:05.630Z,94.20
2018-10-17T09:53:08.733Z,93.70
2018-10-17T09:58:11.910Z,94.00
2018-10-17T10:03:15.042Z,94.20
2018-10-17T10:08:18.188Z,93.60
2018-10-17T10:13:21.380Z,93.70
2018-10-17T10:18:24.609Z,94.00
2018-10-17T10:23:27.789Z,94.00
2018-10-17T10:28:30.925Z,93.20
2018-10-17T10:33:34.002Z,92.80
2018-10-17T10:38:37.134Z,92.90
2018-10-17T10:43:40.459Z,92.80
2018-10-17T10:48:43.578Z,92.90
2018-10-17T10:53:46.674Z,92.70
2018-10-17T10:58:49.964Z,92.40
2018-10-17T11:03:56.059Z,92.40
2018-10-17T11:08:59.149Z,92.40
2018-10-17T11:14:02.418Z,92.40
2018-10-17T11:19:05.637Z,92.40
2018-10-17T11:24:08.740Z,92.20
2018-10-17T11:29:11.865Z,92.10
2018-10-17T11:34:14.965Z,92.20
2018-10-17T11:39:18.080Z,91.40
2018-10-17T11:44:21.345Z,92.10
2018-10-17T11:49:24.440Z,92.20
2018-10-17T11:54:27.545Z,92.10
2018-10-17T11:59:30.684Z,92.00
2018-10-17T12:04:33.873Z,92.10
2018-10-17T12:09:36.907Z,92.10
2018-10-17T12:14:40.014Z,91.90
2018-10-17T12:19:43.199Z,92.00
2018-10-17T12:24:46.243Z,92.00
2018-10-17T12:29:49.328Z,91.60
2018-10-17T12:34:52.459Z,90.60
2018-10-17T12:39:55.687Z,91.20
2018-10-17T12:44:58.706Z,90.60
2018-10-17T12:50:02.028Z,91.20
2018-10-17T12:55:05.926Z,90.70
2018-10-17T13:00:09.784Z,91.20
2018-10-17T13:05:12.911Z,90.80
2018-10-17T13:10:15.984Z,90.80
2018-10-17T13:15:19.222Z,90.90
2018-10-17T13:20:22.326Z,90.80
2018-10-17T13:25:25.413Z,90.70
2018-10-17T13:30:28.513Z,90.20
2018-10-17T13:35:31.619Z,88.90
2018-10-17T13:40:34.709Z,88.70
2018-10-17T13:45:37.837Z,88.00
2018-10-17T13:50:40.978Z,87.70
2018-10-17T13:55:44.109Z,86.80
2018-10-17T14:00:47.217Z,86.60
2018-10-17T14:05:50.544Z,87.20
2018-10-17T14:10:53.678Z,87.10
2018-10-17T14:15:56.789Z,86.40
2018-10-17T14:20:59.927Z,85.60
2018-10-17T14:26:03.034Z,84.50
2018-10-17T14:31:06.161Z,84.10
2018-10-17T14:36:09.325Z,84.40
2018-10-17T14:41:12.465Z,83.70
2018-10-17T14:46:15.808Z,82.70
2018-10-17T14:51:18.991Z,83.00
2018-10-17T14:56:22.094Z,83.40
2018-10-17T15:01:25.171Z,83.00
2018-10-17T15:06:28.293Z,84.00
2018-10-17T15:11:31.504Z,84.10
2018-10-17T15:16:34.539Z,84.40
2018-10-17T15:21:37.650Z,84.70
2018-10-17T15:26:40.741Z,84.60
2018-10-17T15:31:43.906Z,85.00
2018-10-17T15:36:47.059Z,85.20
2018-10-17T15:41:50.130Z,85.40
2018-10-17T15:46:53.233Z,86.00
2018-10-17T15:51:58.526Z,86.80
2018-10-17T15:57:01.701Z,86.80
2018-10-17T16:02:05.226Z,87.40
2018-10-17T16:07:08.348Z,87.40
2018-10-17T16:12:11.548Z,88.20
2018-10-17T16:17:14.733Z,88.90
2018-10-17T16:22:23.878Z,89.40
2018-10-17T16:27:26.982Z,89.30
2018-10-17T16:32:30.119Z,89.80
2018-10-17T16:37:33.266Z,89.80
2018-10-17T16:42:36.388Z,90.10
2018-10-17T16:47:39.675Z,90.10
2018-10-17T16:52:43.017Z,90.20
2018-10-17T16:57:46.196Z,90.40
2018-10-17T17:02:49.304Z,90.60
2018-10-17T17:07:52.537Z,90.90
2018-10-17T17:12:55.681Z,91.20
2018-10-17T17:17:58.851Z,91.30
2018-10-17T17:23:07.903Z,91.50
2018-10-17T17:28:11.011Z,92.00
2018-10-17T17:33:14.282Z,91.80
2018-10-17T17:38:17.391Z,92.00
2018-10-17T17:48:23.465Z,92.10
2018-10-17T17:53:40.938Z,92.10
2018-10-17T17:58:44.111Z,92.30
2018-10-17T18:03:47.236Z,92.50
2018-10-17T18:09:03.102Z,93.40
2018-10-17T18:14:10.074Z,93.50
2018-10-17T18:19:13.173Z,93.50
2018-10-17T18:24:16.281Z,93.80
2018-10-17T18:29:19.369Z,94.00
2018-10-17T18:34:22.502Z,94.20
2018-10-17T18:39:25.641Z,94.40
2018-10-17T18:44:29.034Z,94.10
2018-10-17T18:49:32.293Z,94.40
2018-10-17T18:54:36.080Z,94.80
2018-10-17T18:59:39.289Z,95.10
2018-10-17T19:04:46.821Z,95.20
2018-10-17T19:09:50.219Z,94.70
2018-10-17T19:14:53.363Z,94.80
2018-10-17T19:19:56.493Z,95.00
2018-10-17T19:25:00.467Z,95.10
2018-10-17T19:30:04.056Z,95.00
2018-10-17T19:35:07.193Z,95.00
2018-10-17T19:45:49.857Z,95.60
2018-10-17T19:50:53.005Z,95.70
2018-10-17T20:01:25.289Z,95.80
2018-10-17T20:06:28.420Z,95.60
2018-10-17T20:11:31.534Z,95.60
2018-10-17T20:16:34.623Z,95.80
2018-10-17T20:21:37.742Z,95.90
2018-10-17T20:26:40.866Z,95.40
2018-10-17T20:31:43.946Z,95.90
2018-10-17T20:36:47.018Z,95.90
2018-10-17T20:41:50.096Z,96.20
2018-10-17T20:46:53.213Z,96.10
2018-10-17T20:51:56.347Z,95.60
2018-10-17T20:57:00.644Z,95.70
2018-10-17T21:02:04.140Z,95.90
2018-10-17T21:07:07.418Z,96.30
2018-10-17T21:12:10.501Z,96.10
2018-10-17T21:17:13.593Z,96.30
2018-10-17T21:22:16.691Z,96.30
2018-10-17T21:27:19.760Z,96.60
2018-10-17T21:32:22.898Z,96.30
2018-10-17T21:37:26.010Z,96.20
2018-10-17T21:42:29.123Z,96.80
2018-10-17T21:47:32.217Z,96.60
2018-10-17T21:52:35.341Z,96.50
2018-10-17T21:57:38.634Z,97.10
2018-10-17T22:02:41.779Z,96.80
2018-10-17T22:07:44.868Z,97.00
2018-10-17T22:12:47.972Z,96.90
2018-10-17T22:17:51.096Z,96.50
2018-10-17T22:22:54.214Z,96.30
2018-10-17T22:27:57.341Z,96.60
2018-10-17T22:33:00.440Z,96.70
2018-10-17T22:38:03.581Z,96.80
2018-10-17T22:43:06.706Z,97.20
2018-10-17T22:48:09.787Z,96.80
2018-10-17T22:53:12.862Z,97.30
2018-10-17T22:58:22.637Z,96.90
2018-10-17T23:03:25.702Z,96.90
2018-10-17T23:08:28.777Z,97.10
2018-10-17T23:13:31.854Z,97.60
2018-10-17T23:18:34.932Z,97.30
2018-10-17T23:23:37.996Z,97.70
2018-10-17T23:28:41.085Z,97.30
2018-10-17T23:33:44.209Z,97.50
2018-10-17T23:38:47.446Z,97.30
2018-10-17T23:43:50.561Z,97.40
2018-10-17T23:48:53.659Z,97.60
2018-10-17T23:53:56.778Z,97.00
2018-10-17T23:58:59.893Z,97.30
